Bafra, Turkey
Current Conditions -  °F | °C
As of 5:50 PM on Sunday 23 Nov 2014 (Local Time) from LTFH Reporting Station
Broken Clouds Broken Clouds  
Wind Chill: 50°   Ceiling: 10000
Heat Index: 50°   Visibility: 6mi
Dew Point: 39°   Wind: 17mph
Humidity: 66%   Direction: 300°WNW
Pressure: 30.21"   Gusts: NA
Location:  41.57°N, 35.89°E
Report Text: LTFH 231450Z 30015KT 9999 SCT033 BKN100 10/04 Q1023 NOSIG
Loading
Personal Weather Stations






























Interactive Weather Map New forecast layout! Learn more

10-Day Weather Forecast

Advertisements
Track Severe Weather on mobile